Miguel Ángel Fernández

Recruteur - Atlético Tucumán
20 Nov 2027
Samedi
Processus

Personnalité

Adaptabilité (15) Ambition (3) Controverse (18) Loyauté (2) Pression (4) Professionnalisme (6) Sportivité (16) Tempérament (2)

Profil

Style d'entraînement Démocratique
Diplôme Continental Pro
Détermination 12
Gestion des joueurs 7
Motivation 9
Discipline 9
Satisfaction professionnelle
100%
Fatigue
0%
Rôle Recruteur
Salaire 65.9K p/s
Contrat 14.03.2030

Performance

Comportement Bon
Efficacité de l'entraînement
31%
Développement des joueurs
60%
Prévention des blessures
55%
Mise en place tactique
30%

Événements récents

A participé à une réunion de recrutement 7j
A recommandé une cible de transfert 7j
A participé à une réunion de recrutement 14j
A recommandé une cible de transfert 14j
A participé à une réunion de recrutement 21j
A recommandé une cible de transfert 21j
A participé à une réunion de recrutement 28j
A recommandé une cible de transfert 28j

Suivi en cours

131
Joueur Club Statut Capacité Confiance Observé Dernière observation Dernier vote
Nazareno Petrecca Nueva Chicago Actif 87 / 112 62% 1 21.06.2027 Approuver
Alan Torterolo Defensor Sporting Actif 86 / 109 40% 2 29.11.2026 -
Hílder Arboleda Union Magdalena Actif 86 / 96 40% 1 29.11.2026 -
Tobías Reinhart Universidad de Chile Actif 112 / 127 40% 6 27.11.2026 -
Juan Larios Piast Actif 118 / 132 40% 1 27.11.2026 -
Matías Fernández Independiente Rivadavia Actif 131 / 121 40% 1 25.11.2026 -
Gian Nardelli Deportivo La Coruña Actif 112 / 118 40% 2 24.11.2026 -
Nicolás Romero Minnesota United FC Actif 131 / 149 40% 1 24.11.2026 -
Tomás Moschion Albion Actif 100 / 110 40% 4 22.11.2026 -
Jordan Lotomba Bloemfontein Celtic Actif 124 / 142 40% 2 22.11.2026 -
Sergey Gribov Dinamo Bryansk Actif 73 / 90 40% 1 19.11.2026 -
Facundo Mura Inter Miami CF Actif 132 / 113 40% 2 18.11.2026 -
Gastón Benedetti Estudiantes Actif 135 / 134 40% 1 18.11.2026 -
Tobías Bovone Deportivo Pereira Actif 108 / 121 40% 2 17.11.2026 -
Nicolás Fernández Penarol Actif 131 / 133 40% 1 17.11.2026 -
Claudio Bravo Argentinos Juniors Actif 118 / 120 40% 1 17.11.2026 -
Damián Fernández Defensa y Justicia Actif 124 / 128 40% 1 17.11.2026 -
Alexander Lyng SonderjyskE Actif 103 / 121 40% 1 17.11.2026 -
Iovan Roganovich Sportivo Trinidense Actif 84 / 86 40% 2 16.11.2026 -
Rodrigo González Aldosivi Actif 129 / 112 40% 1 13.11.2026 -
Juan Fernando Alfaro Olimpia Actif 113 / 110 40% 1 13.11.2026 -
Gonzalo Silva Progreso Actif 101 / 103 40% 1 12.11.2026 -
Martín Sarrafiore O'Higgins Actif 122 / 106 40% 2 11.11.2026 -
Santiago Toloza O'Higgins Actif 118 / 117 40% 3 11.11.2026 -
Martín Ortega Newell's Old Boys Actif 127 / 130 40% 1 10.11.2026 -
Francisco Álvarez Argentinos Juniors Actif 114 / 112 40% 1 10.11.2026 -
Luca Langoni New England Revolution Actif 136 / 123 40% 2 08.11.2026 -
Juan Díaz Universidad Catolica Actif 105 / 111 40% 1 07.11.2026 -
Nahuel Herrera Penarol Actif 126 / 120 40% 1 07.11.2026 -
Santiago Montiel Independiente Actif 119 / 114 40% 1 07.11.2026 -
Tomás Jacob Atlanta United FC Actif 118 / 142 40% 1 05.11.2026 -
Santiago Longo Belgrano Actif 129 / 135 40% 1 03.11.2026 -
Tomás Escalante Plaza Colonia Actif 120 / 126 40% 1 03.11.2026 -
Pablo Ruiz Real Salt Lake Actif 117 / 139 40% 1 02.11.2026 -
Emiliano Saliadarre Miramar Misiones Actif 111 / 101 40% 2 01.11.2026 -
Agustín Venezia Iquique Actif 101 / 109 40% 1 01.11.2026 -
Matías Espíndola Deportivo Maldonado Actif 100 / 121 40% 2 30.10.2026 -
Nicolás Azambuja Danubio Actif 119 / 137 40% 1 30.10.2026 -
Alexei Dominguez Pachuca Actif 115 / 121 40% 1 30.10.2026 -
Tiago Palacios Estudiantes Actif 125 / 117 40% 1 28.10.2026 -
Augusto Schott Talleres Actif 113 / 114 40% 1 28.10.2026 -
Inti López River Plate Actif 95 / 86 40% 1 27.10.2026 -
Joaquín Pereyra Minnesota United FC Actif 122 / 114 40% 3 26.10.2026 -
Nicolás Garayalde Liverpool Montevideo Actif 118 / 106 40% 3 22.10.2026 -
Facundo Martínez Montevideo City Torque Actif 84 / 78 40% 1 22.10.2026 -
Diego Corral Universidad Catolica Actif 89 / 80 40% 1 22.10.2026 -
Enzo Loiodice KAA Gent Actif 127 / 133 40% 1 20.10.2026 -
Jonathan De Irastorza Levante Actif 125 / 134 40% 1 19.10.2026 -
Darren Yapi Colorado Rapids Actif 101 / 117 40% 1 18.10.2026 -
Gastón Hernández San Lorenzo Actif 132 / 117 40% 1 17.10.2026 -
Agustín Amado Boston River Actif 115 / 118 40% 1 16.10.2026 -
Franco Troyansky Audax Italiano Actif 110 / 96 40% 1 16.10.2026 -
Lautaro Pertusatti River Plate Actif 114 / 110 40% 1 15.10.2026 -
Andrés Herrera Columbus Crew Actif 130 / 111 40% 1 14.10.2026 -
Alex Luna Instituto Actif 125 / 123 40% 1 13.10.2026 -
Lucas Acosta Liverpool Montevideo Actif 118 / 117 40% 1 12.10.2026 -
Lucas Agazzi Defensor Sporting Actif 117 / 115 40% 1 12.10.2026 -
Martín Ojeda Orlando City Actif 144 / 144 40% 1 09.10.2026 -
Segundo Pachamé Plaza Colonia Actif 110 / 99 40% 1 09.10.2026 -
Abubakar Garba Nasarawa United Actif 102 / 97 40% 2 08.10.2026 -
Santiago Corbo Miramar Misiones Actif 110 / 94 40% 1 07.10.2026 -
Matías Palavecino Universidad Catolica Actif 108 / 115 40% 1 06.10.2026 -
Alejo Antilef Penarol Actif 119 / 98 40% 1 06.10.2026 -
Jerónimo Russo Newell's Old Boys Actif 101 / 98 40% 2 05.10.2026 -
Agustín Maidana San Marcos de Arica Actif 101 / 106 40% 1 05.10.2026 -
Pablo García Plaza Colonia Actif 105 / 96 40% 1 02.10.2026 -
Ezequiel Cañete Huachipato Actif 115 / 128 40% 1 02.10.2026 -
Nicolás Burgio Montevideo City Torque Actif 92 / 101 40% 1 02.10.2026 -
Pavel Núñez Nacional Actif 84 / 78 40% 1 02.10.2026 -
Sebastián Córdova Pumas UNAM Actif 127 / 149 40% 1 30.09.2026 -
Helinho Toluca Actif 136 / 141 40% 1 30.09.2026 -
Nicolás Castro Toluca Actif 132 / 127 40% 2 29.09.2026 -
Carlos Rodríguez Cruz Azul Actif 129 / 127 40% 1 29.09.2026 -
Facundo Velazco San Marcos de Arica Actif 100 / 110 40% 2 28.09.2026 -
Santiago Homenchenko Queretaro Actif 105 / 125 40% 1 28.09.2026 -
Nicolás Fonseca Leon Actif 114 / 118 40% 1 27.09.2026 -
Esequiel Barco Spartak Moscow Actif 150 / 148 40% 1 27.09.2026 -
Bryan Rovira Deportes Tolima Actif 128 / 121 40% 1 26.09.2026 -
Willer Ditta Cruz Azul Actif 144 / 139 40% 1 26.09.2026 -
Alejo Macelli Cerro Actif 104 / 114 40% 1 24.09.2026 -
Andrés Llinás Millonarios Actif 112 / 105 40% 1 24.09.2026 -
Alejo Cruz Juventud Actif 123 / 116 40% 2 22.09.2026 -
Carlos Álvarez Club America Actif 135 / 144 40% 1 22.09.2026 -
Ignacio Schor O'Higgins Actif 125 / 111 40% 2 21.09.2026 -
Uriel Antuna Pumas UNAM Actif 123 / 140 40% 1 21.09.2026 -
Juan Velázquez Atlético Madrid Actif 116 / 119 40% 1 20.09.2026 -
Mathías Tomás Puebla Actif 111 / 96 40% 1 20.09.2026 -
Cristian Barrios Junior Actif 127 / 125 40% 1 18.09.2026 -
Miguel Brizuela O'Higgins Actif 123 / 104 40% 1 16.09.2026 -
Gonzalo Luján Inter Miami CF Actif 126 / 134 40% 1 16.09.2026 -
Jhohan Romaña Leon Actif 125 / 139 40% 1 13.09.2026 -
Lucas Di Yorio Santos Laguna Actif 105 / 132 40% 1 12.09.2026 -
Emerson Batalla Atletico Bucaramanga Actif 125 / 124 40% 1 12.09.2026 -
Daniel Rivera Junior Actif 108 / 108 40% 1 12.09.2026 -
Emiliano Ancheta Nacional Actif 112 / 118 40% 1 12.09.2026 -
Facundo Batista Penarol Actif 117 / 127 40% 1 10.09.2026 -
Adonis Frías Atlas Actif 130 / 135 40% 2 08.09.2026 -
Diego Hernández Aguilas Doradas Actif 117 / 109 40% 2 08.09.2026 -
Tomás Chancalay Minnesota United FC Actif 122 / 122 40% 1 08.09.2026 -
Milton Valenzuela Atlas Actif 121 / 131 40% 1 07.09.2026 -
Julián Aude LA Galaxy Actif 123 / 118 40% 1 07.09.2026 -
Yeferson Rodallega Envigado Actif 110 / 118 40% 1 05.09.2026 -
Agustín Aguirre Boston River Actif 94 / 106 40% 1 03.09.2026 -
Rodrigo Cáseres Union La Calera Actif 106 / 113 40% 1 03.09.2026 -
Ezequiel Bullaude Santos Laguna Actif 131 / 121 40% 2 01.09.2026 -
Diego Chávez Deportivo Pasto Actif 117 / 125 40% 3 31.08.2026 -
Ronaldo Pájaro Deportivo Cali Actif 110 / 115 40% 1 27.08.2026 -
Víctor Guzmán Monterrey Actif 141 / 137 40% 1 26.08.2026 -
Santiago Simón Toluca Actif 107 / 113 40% 1 26.08.2026 -
Rodrigo Martínez Nacional Actif 83 / 82 40% 1 24.08.2026 -
Juan Francisco Rossel Universidad Catolica Actif 90 / 86 40% 1 24.08.2026 -
Sergio Barreto Pachuca Actif 134 / 142 40% 1 24.08.2026 -
Franco Romero Toluca Actif 116 / 119 40% 1 23.08.2026 -
Stiven Vega Millonarios Actif 108 / 118 40% 1 21.08.2026 -
Francisco Manenti Metropolitanos Actif 113 / 97 40% 1 19.08.2026 -
Carlos Airala Albion Actif 99 / 111 40% 1 19.08.2026 -
Alejandro Zendejas Club America Actif 124 / 136 40% 1 18.08.2026 -
Carlos Rotondi Cruz Azul Actif 129 / 139 40% 1 18.08.2026 -
Adrián Parra Deportes Tolima Actif 118 / 120 40% 1 17.08.2026 -
Ezequiel Neira Carabobo Actif 122 / 102 40% 1 17.08.2026 -
Yílmar Velásquez Santa Fe Actif 116 / 132 40% 1 17.08.2026 -
Simón Meza Cerrito Actif 91 / 97 40% 2 16.08.2026 -
Mateo Telechea Liverpool Montevideo Actif 93 / 80 40% 1 16.08.2026 -
Nicolás Pintado Rentistas Actif 95 / 94 40% 1 12.08.2026 -
Luciano Boggio Nacional Actif 130 / 115 40% 1 12.08.2026 -
Juan Sebastián Ramírez Deportivo Cali Actif 88 / 95 40% 1 10.08.2026 -
Agustín Kahl Racing Actif 104 / 118 40% 1 07.08.2026 -
Marcos Mina America de Cali Actif 114 / 103 40% 1 07.08.2026 -
Daniel González Universidad Catolica Actif 105 / 123 40% 1 05.08.2026 -
Alan García Wanderers Actif 106 / 113 40% 1 05.08.2026 -
Jhomier Guerrero Millonarios Actif 118 / 116 40% 1 04.08.2026 -